createdAt,value
2023-04-08T04:15:20.965Z,3.70
2023-04-08T04:16:21.009Z,3.71
2023-04-08T04:17:20.965Z,3.75
2023-04-08T04:18:20.930Z,3.78
2023-04-08T04:19:20.938Z,3.76
2023-04-08T04:20:20.899Z,3.80
2023-04-08T04:21:20.890Z,3.89
2023-04-08T04:22:20.874Z,3.94
2023-04-08T04:23:20.858Z,4.03
2023-04-08T04:24:20.854Z,4.12
2023-04-08T04:25:20.859Z,4.15
2023-04-08T04:26:20.813Z,4.08
2023-04-08T04:27:20.822Z,4.00
2023-04-08T04:28:20.794Z,4.00
2023-04-08T04:29:20.781Z,4.08
2023-04-08T04:30:20.768Z,4.07
2023-04-08T04:31:20.766Z,4.03
2023-04-08T04:32:20.785Z,3.97
2023-04-08T04:33:20.729Z,4.12
2023-04-08T04:34:20.713Z,4.15
2023-04-08T04:35:20.727Z,4.21
2023-04-08T04:36:20.700Z,4.28
2023-04-08T04:37:20.701Z,4.34
2023-04-08T04:38:20.660Z,4.40
2023-04-08T04:39:20.655Z,4.43
2023-04-08T04:40:20.633Z,4.44
2023-04-08T04:41:20.639Z,4.47
2023-04-08T04:42:20.626Z,4.43
2023-04-08T04:43:20.594Z,4.43
2023-04-08T04:44:20.585Z,4.51
2023-04-08T04:45:20.575Z,4.52
2023-04-08T04:46:20.606Z,4.46
2023-04-08T04:47:20.551Z,4.39
2023-04-08T04:48:20.552Z,4.37
2023-04-08T04:49:20.516Z,4.37
2023-04-08T04:50:20.509Z,4.32
2023-04-08T04:51:20.497Z,4.33
2023-04-08T04:52:20.476Z,4.34
2023-04-08T04:53:20.485Z,4.32
2023-04-08T04:54:20.449Z,4.39
2023-04-08T04:55:20.447Z,4.50
2023-04-08T04:56:20.425Z,4.52
2023-04-08T04:57:20.422Z,4.61
2023-04-08T04:58:20.413Z,4.64
2023-04-08T04:59:20.395Z,4.65
2023-04-08T05:00:20.371Z,4.64
2023-04-08T05:01:20.390Z,4.64
2023-04-08T05:02:20.414Z,4.61
2023-04-08T05:03:20.362Z,4.62
2023-04-08T05:04:20.331Z,4.65
2023-04-08T05:05:20.384Z,4.69
2023-04-08T05:06:20.317Z,4.75
2023-04-08T05:07:20.301Z,4.76
2023-04-08T05:08:20.286Z,4.73
2023-04-08T05:09:20.269Z,4.65
2023-04-08T05:10:20.247Z,4.58
2023-04-08T05:11:20.234Z,4.51
2023-04-08T05:12:20.223Z,4.57
2023-04-08T05:13:20.226Z,4.62
2023-04-08T05:14:20.199Z,4.64
2023-04-08T05:15:20.183Z,4.69
2023-04-08T05:16:20.198Z,4.72
2023-04-08T05:17:20.172Z,4.72
2023-04-08T05:18:20.163Z,4.72
2023-04-08T05:19:20.174Z,4.72
2023-04-08T05:20:20.118Z,4.70
2023-04-08T05:21:20.108Z,4.72
2023-04-08T05:22:20.100Z,4.77
2023-04-08T05:23:20.095Z,4.80
2023-04-08T05:24:20.068Z,4.86
2023-04-08T05:25:20.060Z,4.88
2023-04-08T05:26:20.422Z,4.88
2023-04-08T05:27:20.045Z,4.88
2023-04-08T05:28:20.040Z,4.95
2023-04-08T05:29:20.007Z,4.96
2023-04-08T05:30:19.994Z,4.98
2023-04-08T05:31:20.050Z,4.99
2023-04-08T05:32:19.970Z,5.02
2023-04-08T05:33:19.964Z,5.05
2023-04-08T05:34:19.947Z,5.09
2023-04-08T05:35:19.948Z,5.10
2023-04-08T05:36:19.909Z,5.10
2023-04-08T05:37:19.924Z,5.13
2023-04-08T05:38:19.928Z,5.17
2023-04-08T05:39:19.879Z,5.13
2023-04-08T05:40:19.874Z,5.07
2023-04-08T05:41:19.956Z,5.09
2023-04-08T05:42:19.835Z,5.09
2023-04-08T05:43:19.855Z,5.05
2023-04-08T05:44:19.804Z,5.10
2023-04-08T05:45:19.800Z,5.07
2023-04-08T05:46:19.790Z,5.14
2023-04-08T05:47:19.796Z,5.19
2023-04-08T05:48:19.772Z,5.23
2023-04-08T05:49:19.746Z,5.28
2023-04-08T05:50:19.785Z,5.30
2023-04-08T05:51:19.725Z,5.34
2023-04-08T05:52:19.699Z,5.37
2023-04-08T05:53:19.705Z,5.45
2023-04-08T05:54:19.670Z,5.49
2023-04-08T05:55:19.684Z,5.52
2023-04-08T05:56:19.650Z,5.55
2023-04-08T05:57:19.631Z,5.59
2023-04-08T05:58:19.638Z,5.63
2023-04-08T05:59:19.609Z,5.64
2023-04-08T06:00:19.587Z,5.64
2023-04-08T06:01:19.587Z,5.64
2023-04-08T06:02:19.705Z,5.66
2023-04-08T06:03:20.773Z,5.68
2023-04-08T06:04:19.659Z,5.73
2023-04-08T06:05:19.531Z,5.82
2023-04-08T06:06:19.512Z,5.88
2023-04-08T06:07:19.518Z,5.92
2023-04-08T06:08:19.493Z,6.00
2023-04-08T06:09:19.474Z,6.09
2023-04-08T06:10:19.482Z,6.11
2023-04-08T06:11:19.469Z,6.11
2023-04-08T06:12:19.429Z,6.07
2023-04-08T06:13:19.433Z,6.09
2023-04-08T06:14:19.450Z,6.11
2023-04-08T06:15:19.396Z,6.19
2023-04-08T06:16:21.148Z,6.21
2023-04-08T06:17:19.412Z,6.19
2023-04-08T06:18:26.439Z,6.18
2023-04-08T06:19:19.497Z,6.13
2023-04-08T06:20:19.325Z,6.16
2023-04-08T06:21:19.319Z,6.13
2023-04-08T06:22:19.323Z,6.09
2023-04-08T06:23:19.312Z,6.04
2023-04-08T06:24:19.287Z,6.07
2023-04-08T06:25:19.270Z,6.10
2023-04-08T06:26:19.246Z,6.11
2023-04-08T06:27:19.237Z,6.07
2023-04-08T06:28:19.355Z,6.04
2023-04-08T06:29:19.215Z,6.07
2023-04-08T06:30:19.191Z,6.11
2023-04-08T06:31:19.226Z,6.19
2023-04-08T06:32:19.166Z,6.26
2023-04-08T06:33:19.177Z,6.32
2023-04-08T06:34:19.154Z,6.28
2023-04-08T06:35:19.186Z,6.25
2023-04-08T06:36:19.129Z,6.29
2023-04-08T06:37:19.116Z,6.30
2023-04-08T06:38:19.094Z,6.32
2023-04-08T06:39:19.076Z,6.28
2023-04-08T06:40:19.066Z,6.25
2023-04-08T06:41:19.053Z,6.22
2023-04-08T06:42:19.857Z,6.22
2023-04-08T06:43:19.028Z,6.29
2023-04-08T06:44:19.018Z,6.58
2023-04-08T06:45:19.006Z,6.81
2023-04-08T06:46:19.040Z,6.89
2023-04-08T06:47:18.968Z,6.95
2023-04-08T06:48:18.980Z,7.09
2023-04-08T06:49:18.968Z,7.22
2023-04-08T06:50:18.925Z,7.17
2023-04-08T06:51:18.927Z,7.26
2023-04-08T06:52:18.903Z,7.45
2023-04-08T06:53:18.912Z,7.62
2023-04-08T06:54:18.879Z,7.72
2023-04-08T06:55:18.874Z,7.93
2023-04-08T06:56:18.849Z,8.02
2023-04-08T06:57:18.843Z,8.15
2023-04-08T06:58:18.837Z,8.30
2023-04-08T06:59:18.823Z,8.32
2023-04-08T07:00:18.816Z,8.39
2023-04-08T07:01:18.863Z,8.50
2023-04-08T07:02:18.916Z,8.51
2023-04-08T07:03:18.801Z,8.54
2023-04-08T07:04:18.927Z,8.60
2023-04-08T07:05:18.748Z,8.75
2023-04-08T07:06:18.726Z,8.81
2023-04-08T07:07:18.729Z,8.83
2023-04-08T07:08:18.708Z,8.86
2023-04-08T07:09:18.682Z,9.01
2023-04-08T07:10:18.666Z,9.10
2023-04-08T07:11:18.660Z,9.04
2023-04-08T07:12:18.675Z,8.90
2023-04-08T07:13:18.645Z,8.86
2023-04-08T07:14:18.620Z,8.90
2023-04-08T07:15:18.613Z,8.91
2023-04-08T07:16:18.613Z,8.84
2023-04-08T07:17:18.590Z,8.65
2023-04-08T07:18:18.586Z,8.48
2023-04-08T07:19:18.563Z,8.32
2023-04-08T07:20:18.541Z,8.33
2023-04-08T07:21:18.533Z,8.51
2023-04-08T07:22:18.518Z,8.71
2023-04-08T07:23:18.518Z,8.79
2023-04-08T07:24:18.493Z,8.90
2023-04-08T07:25:18.471Z,8.94
2023-04-08T07:26:18.454Z,9.30
2023-04-08T07:27:18.456Z,9.34
2023-04-08T07:28:18.448Z,9.32
2023-04-08T07:29:18.424Z,9.28
2023-04-08T07:30:18.403Z,9.38
2023-04-08T07:31:18.410Z,9.45
2023-04-08T07:32:18.386Z,9.42
2023-04-08T07:33:18.383Z,9.43
2023-04-08T07:34:18.351Z,9.49
2023-04-08T07:35:18.367Z,9.52
2023-04-08T07:36:18.369Z,9.45
2023-04-08T07:37:18.331Z,9.46
2023-04-08T07:38:18.311Z,9.43
2023-04-08T07:39:18.314Z,9.61
2023-04-08T07:40:18.432Z,9.70
2023-04-08T07:41:18.266Z,9.64
2023-04-08T07:42:18.257Z,9.68
2023-04-08T07:43:18.234Z,10.12
2023-04-08T07:44:18.213Z,10.33
2023-04-08T07:45:18.199Z,10.18
2023-04-08T07:46:18.247Z,9.82
2023-04-08T07:47:18.206Z,9.46
2023-04-08T07:48:18.188Z,9.13
2023-04-08T07:49:18.152Z,8.86
2023-04-08T07:50:18.149Z,8.68
2023-04-08T07:51:20.641Z,8.51
2023-04-08T07:52:18.113Z,8.37
2023-04-08T07:53:18.109Z,8.26
2023-04-08T07:54:18.088Z,8.11
2023-04-08T07:55:18.072Z,8.03
2023-04-08T07:56:18.061Z,7.96
2023-04-08T07:57:18.042Z,7.92
2023-04-08T07:58:18.049Z,7.89
2023-04-08T07:59:18.011Z,7.89
2023-04-08T08:00:18.013Z,7.93
2023-04-08T08:01:17.988Z,7.94
2023-04-08T08:02:18.110Z,7.90
2023-04-08T08:03:18.090Z,7.85
2023-04-08T08:04:18.244Z,7.82
2023-04-08T08:05:18.069Z,7.85
2023-04-08T08:06:17.939Z,7.85
2023-04-08T08:07:17.915Z,7.90
2023-04-08T08:08:17.920Z,7.93
2023-04-08T08:09:17.882Z,7.92
2023-04-08T08:10:17.884Z,7.93
2023-04-08T08:11:17.859Z,7.97
2023-04-08T08:12:17.849Z,8.03
2023-04-08T08:13:17.831Z,8.00
2023-04-08T08:14:17.841Z,7.99
2023-04-08T08:15:17.810Z,8.00
2023-04-08T08:16:17.861Z,8.03
2023-04-08T08:17:17.784Z,8.04
2023-04-08T08:18:17.783Z,8.02
2023-04-08T08:19:17.755Z,7.97
2023-04-08T08:20:17.755Z,8.00
2023-04-08T08:21:17.759Z,8.07
2023-04-08T08:22:17.715Z,8.11
2023-04-08T08:23:17.720Z,8.15
2023-04-08T08:24:17.705Z,8.25
2023-04-08T08:25:17.679Z,8.32
2023-04-08T08:26:17.681Z,8.36
2023-04-08T08:27:17.659Z,8.42
2023-04-08T08:28:17.649Z,8.48
2023-04-08T08:29:17.624Z,8.53
2023-04-08T08:30:17.612Z,8.45
2023-04-08T08:31:17.617Z,8.32
2023-04-08T08:32:17.588Z,8.37
2023-04-08T08:33:17.581Z,8.39
2023-04-08T08:34:17.562Z,8.40
2023-04-08T08:35:17.553Z,8.45
2023-04-08T08:36:17.600Z,8.48
2023-04-08T08:37:17.527Z,8.51
2023-04-08T08:38:17.528Z,8.55
2023-04-08T08:39:17.492Z,8.63
2023-04-08T08:40:17.485Z,8.68
2023-04-08T08:41:17.479Z,8.71
2023-04-08T08:42:17.460Z,8.65
2023-04-08T08:43:17.458Z,8.37
2023-04-08T08:44:17.448Z,8.15
2023-04-08T08:45:17.412Z,8.08
2023-04-08T08:46:17.492Z,8.07
2023-04-08T08:47:17.401Z,8.14
2023-04-08T08:48:17.419Z,8.17
2023-04-08T08:49:17.366Z,8.07
2023-04-08T08:50:17.349Z,8.11
2023-04-08T08:51:17.332Z,8.10
2023-04-08T08:52:17.328Z,8.08
2023-04-08T08:53:17.330Z,8.11
2023-04-08T08:54:17.339Z,8.17
2023-04-08T08:56:18.984Z,8.29
2023-04-08T08:57:17.261Z,8.32
2023-04-08T08:58:17.257Z,8.30
2023-04-08T08:59:17.219Z,8.32
2023-04-08T09:00:17.226Z,8.35
2023-04-08T09:01:17.202Z,8.39
2023-04-08T09:02:17.360Z,8.47
2023-04-08T09:03:17.414Z,8.55
2023-04-08T09:04:17.521Z,8.68
2023-04-08T09:05:17.556Z,8.84
2023-04-08T09:06:17.136Z,9.01
2023-04-08T09:07:17.134Z,8.99
2023-04-08T09:08:17.129Z,9.05
2023-04-08T09:09:17.095Z,9.04
2023-04-08T09:10:17.108Z,9.13
2023-04-08T09:11:17.061Z,9.16
2023-04-08T09:12:18.124Z,9.23
2023-04-08T09:13:17.045Z,9.20
2023-04-08T09:14:17.026Z,9.21
2023-04-08T09:15:17.015Z,9.15
2023-04-08T09:16:17.048Z,9.16
2023-04-08T09:17:16.995Z,9.16
2023-04-08T09:18:17.852Z,9.16
2023-04-08T09:19:16.958Z,9.20
2023-04-08T09:20:16.976Z,9.24
2023-04-08T09:21:16.986Z,9.12
2023-04-08T09:22:16.922Z,8.94
2023-04-08T09:23:16.916Z,8.87
2023-04-08T09:24:17.834Z,8.75
2023-04-08T09:25:16.891Z,8.72
2023-04-08T09:26:16.871Z,8.75
2023-04-08T09:27:16.866Z,8.75
2023-04-08T09:28:16.857Z,8.75
2023-04-08T09:29:25.465Z,8.75
2023-04-08T09:30:17.820Z,8.78
2023-04-08T09:31:16.838Z,8.86
2023-04-08T09:32:16.784Z,8.93
2023-04-08T09:33:16.795Z,8.91
2023-04-08T09:34:16.756Z,8.97
2023-04-08T09:35:16.781Z,9.06
2023-04-08T09:36:16.732Z,9.20
2023-04-08T09:37:16.722Z,9.32
2023-04-08T09:38:16.719Z,9.43
2023-04-08T09:39:16.705Z,9.40
2023-04-08T09:40:16.702Z,9.39
2023-04-08T09:41:16.709Z,9.48
2023-04-08T09:42:16.665Z,9.46
2023-04-08T09:43:16.662Z,9.49
2023-04-08T09:44:16.642Z,9.53
2023-04-08T09:45:16.623Z,9.66
2023-04-08T09:46:16.629Z,9.83
2023-04-08T09:47:16.609Z,9.93
2023-04-08T09:48:16.703Z,10.03
2023-04-08T09:49:16.569Z,9.99
2023-04-08T09:50:16.553Z,9.94
2023-04-08T09:51:16.553Z,9.83
2023-04-08T09:52:16.560Z,9.75
2023-04-08T09:53:16.527Z,9.66
2023-04-08T09:54:16.505Z,9.67
2023-04-08T09:55:16.490Z,9.75
2023-04-08T09:56:16.475Z,9.86
2023-04-08T09:57:16.474Z,10.00
2023-04-08T09:58:16.635Z,10.14
2023-04-08T09:59:16.448Z,10.25
2023-04-08T10:00:16.422Z,10.32
2023-04-08T10:01:16.452Z,10.19
2023-04-08T10:02:16.454Z,10.32
2023-04-08T10:03:16.668Z,10.58
2023-04-08T10:04:16.474Z,10.81
2023-04-08T10:05:16.365Z,10.89
2023-04-08T10:06:16.347Z,10.98
2023-04-08T10:07:16.336Z,11.09
2023-04-08T10:08:16.348Z,11.20
2023-04-08T10:09:16.323Z,11.03
2023-04-08T10:10:16.295Z,10.94
2023-04-08T10:11:16.279Z,10.98
2023-04-08T10:12:16.265Z,11.03
2023-04-08T10:13:16.285Z,11.10
2023-04-08T10:14:16.234Z,11.02
2023-04-08T10:15:16.228Z,10.77
2023-04-08T10:16:16.230Z,10.56
2023-04-08T10:17:16.208Z,10.58
2023-04-08T10:18:16.205Z,10.60
2023-04-08T10:19:16.182Z,10.74
2023-04-08T10:20:16.153Z,10.71
2023-04-08T10:21:16.146Z,10.53
2023-04-08T10:22:16.130Z,10.46
2023-04-08T10:23:16.132Z,10.43
2023-04-08T10:24:16.104Z,10.47
2023-04-08T10:25:16.100Z,10.59
2023-04-08T10:26:16.081Z,10.59
2023-04-08T10:27:16.067Z,10.71
2023-04-08T10:28:16.060Z,10.76
2023-04-08T10:29:16.045Z,10.63
2023-04-08T10:30:16.032Z,10.59
2023-04-08T10:31:16.013Z,10.47
2023-04-08T10:32:15.992Z,10.37
2023-04-08T10:33:16.007Z,10.34
2023-04-08T10:34:15.971Z,10.34
2023-04-08T10:35:15.952Z,10.34
2023-04-08T10:36:15.949Z,10.42
2023-04-08T10:37:15.943Z,10.44
2023-04-08T10:38:15.949Z,10.44
2023-04-08T10:39:15.900Z,10.43
2023-04-08T10:40:15.972Z,10.42
2023-04-08T10:41:15.878Z,10.40
2023-04-08T10:42:15.867Z,10.39
2023-04-08T10:43:15.871Z,10.42
2023-04-08T10:44:15.828Z,10.42
2023-04-08T10:45:15.829Z,10.43
2023-04-08T10:46:15.844Z,10.40
2023-04-08T10:47:15.791Z,10.37
2023-04-08T10:48:15.791Z,10.37
2023-04-08T10:49:15.782Z,10.44
2023-04-08T10:50:15.948Z,10.43
2023-04-08T10:51:15.739Z,10.53
2023-04-08T10:52:15.724Z,10.55
2023-04-08T10:53:15.724Z,10.55
2023-04-08T10:54:15.708Z,10.62
2023-04-08T10:55:15.688Z,10.68
2023-04-08T10:56:15.764Z,10.71
2023-04-08T10:57:15.666Z,10.71
2023-04-08T10:58:15.647Z,10.73
2023-04-08T10:59:15.633Z,10.77
2023-04-08T11:00:15.637Z,10.84
2023-04-08T11:01:15.626Z,10.88
2023-04-08T11:02:15.704Z,10.86
2023-04-08T11:03:15.865Z,10.84
2023-04-08T11:04:15.667Z,10.80
2023-04-08T11:05:15.550Z,10.74
2023-04-08T11:06:15.549Z,10.68
2023-04-08T11:07:15.527Z,10.63
2023-04-08T11:08:15.518Z,10.65
2023-04-08T11:09:15.515Z,10.66
2023-04-08T11:10:15.525Z,10.65
2023-04-08T11:11:15.531Z,10.59
2023-04-08T11:12:15.471Z,10.76
2023-04-08T11:13:15.447Z,10.74
2023-04-08T11:14:15.427Z,10.71
2023-04-08T11:15:15.419Z,10.86
2023-04-08T11:16:18.441Z,11.11
2023-04-08T11:17:15.405Z,11.16
2023-04-08T11:18:15.389Z,11.21
2023-04-08T11:19:15.360Z,11.29
2023-04-08T11:20:15.372Z,11.50
2023-04-08T11:21:15.338Z,11.75
2023-04-08T11:22:15.322Z,11.87
2023-04-08T11:23:15.360Z,12.08
2023-04-08T11:24:15.300Z,12.26
2023-04-08T11:25:15.304Z,12.45
2023-04-08T11:26:15.273Z,12.48
2023-04-08T11:27:15.306Z,12.52
2023-04-08T11:28:15.283Z,12.59
2023-04-08T11:29:15.271Z,12.57
2023-04-08T11:30:15.301Z,12.51
2023-04-08T11:31:15.239Z,12.48
2023-04-08T11:32:15.209Z,12.42
2023-04-08T11:33:15.188Z,12.44
2023-04-08T11:34:15.158Z,12.48
2023-04-08T11:35:15.150Z,12.52
2023-04-08T11:36:15.177Z,12.49
2023-04-08T11:37:15.121Z,12.45
2023-04-08T11:38:15.121Z,12.42
2023-04-08T11:39:15.093Z,12.38
2023-04-08T11:40:15.083Z,12.23
2023-04-08T11:41:15.077Z,12.11
2023-04-08T11:42:15.050Z,12.09
2023-04-08T11:43:15.055Z,12.06
2023-04-08T11:44:15.023Z,12.04
2023-04-08T11:45:15.016Z,12.08
2023-04-08T11:46:15.062Z,12.13
2023-04-08T11:47:14.989Z,12.16
2023-04-08T11:48:14.986Z,12.12
2023-04-08T11:49:14.971Z,12.12
2023-04-08T11:50:14.948Z,12.12
2023-04-08T11:51:14.938Z,12.13
2023-04-08T11:52:14.916Z,12.16
2023-04-08T11:53:14.920Z,12.15
2023-04-08T11:54:14.887Z,12.09
2023-04-08T11:55:14.885Z,12.02
2023-04-08T11:56:14.908Z,11.90
2023-04-08T11:57:14.855Z,11.87
2023-04-08T11:58:14.849Z,11.90
2023-04-08T11:59:14.834Z,11.90
2023-04-08T12:00:14.820Z,11.99
2023-04-08T12:01:14.809Z,12.01
2023-04-08T12:02:14.915Z,11.94
2023-04-08T12:03:14.884Z,12.04
2023-04-08T12:04:15.095Z,12.20
2023-04-08T12:05:14.811Z,12.15
2023-04-08T12:06:14.737Z,12.08
2023-04-08T12:07:14.744Z,12.11
2023-04-08T12:08:14.714Z,12.11
2023-04-08T12:09:14.714Z,12.15
2023-04-08T12:10:14.686Z,12.15
2023-04-08T12:11:19.593Z,12.20
2023-04-08T12:12:15.714Z,12.15
2023-04-08T12:13:14.644Z,12.09
2023-04-08T12:14:14.642Z,12.04
2023-04-08T12:15:14.617Z,12.04
2023-04-08T12:16:14.637Z,12.11
2023-04-08T12:17:14.584Z,12.20
2023-04-08T12:18:21.657Z,12.09
2023-04-08T12:19:14.565Z,11.90
2023-04-08T12:20:14.560Z,11.89
2023-04-08T12:21:14.597Z,12.01
2023-04-08T12:22:14.531Z,12.13
2023-04-08T12:23:14.568Z,12.15
2023-04-08T12:24:14.504Z,12.23
2023-04-08T12:25:14.505Z,12.19
2023-04-08T12:26:14.482Z,12.13
2023-04-08T12:27:14.474Z,12.20
2023-04-08T12:28:14.460Z,12.33
2023-04-08T12:29:14.428Z,12.41
2023-04-08T12:30:16.246Z,12.39
2023-04-08T12:31:14.418Z,12.45
2023-04-08T12:32:14.398Z,12.56
2023-04-08T12:33:14.390Z,12.59
2023-04-08T12:34:14.376Z,12.62
2023-04-08T12:35:14.351Z,12.59
2023-04-08T12:36:14.436Z,12.19
2023-04-08T12:37:14.329Z,11.93
2023-04-08T12:38:14.343Z,11.78
2023-04-08T12:39:14.305Z,11.80
2023-04-08T12:40:14.307Z,11.78
2023-04-08T12:41:14.277Z,11.74
2023-04-08T12:42:14.275Z,11.80
2023-04-08T12:43:14.247Z,11.86
2023-04-08T12:44:14.257Z,11.94
2023-04-08T12:45:14.222Z,12.01
2023-04-08T12:46:14.212Z,12.04
2023-04-08T12:47:14.218Z,12.06
2023-04-08T12:48:14.181Z,12.11
2023-04-08T12:49:14.172Z,12.08
2023-04-08T12:50:14.161Z,12.05
2023-04-08T12:51:14.145Z,12.02
2023-04-08T12:52:14.142Z,12.09
2023-04-08T12:53:14.120Z,12.16
2023-04-08T12:54:14.117Z,12.27
2023-04-08T12:55:14.114Z,12.34
2023-04-08T12:56:14.105Z,12.39
2023-04-08T12:57:14.086Z,12.34
2023-04-08T12:58:14.063Z,12.27
2023-04-08T12:59:14.049Z,12.24
2023-04-08T13:00:14.036Z,12.27
2023-04-08T13:01:14.103Z,12.23
2023-04-08T13:02:14.055Z,12.08
2023-04-08T13:03:14.051Z,11.86
2023-04-08T13:04:14.023Z,11.83
2023-04-08T13:05:13.965Z,11.96
2023-04-08T13:06:13.960Z,12.04
2023-04-08T13:07:13.946Z,12.01
2023-04-08T13:08:13.922Z,12.01
2023-04-08T13:09:13.903Z,11.89
2023-04-08T13:10:13.904Z,11.80
2023-04-08T13:11:13.890Z,11.78
2023-04-08T13:12:13.881Z,11.83
2023-04-08T13:13:13.853Z,11.83
2023-04-08T13:14:13.852Z,11.80
2023-04-08T13:15:13.831Z,11.83
2023-04-08T13:16:13.848Z,11.85
2023-04-08T13:17:13.813Z,11.82
2023-04-08T13:18:13.793Z,11.82
2023-04-08T13:19:13.773Z,11.75
2023-04-08T13:20:13.763Z,11.74
2023-04-08T13:21:13.754Z,11.71
2023-04-08T13:22:13.744Z,11.71
2023-04-08T13:23:13.749Z,11.72
2023-04-08T13:24:13.719Z,11.86
2023-04-08T13:25:13.705Z,11.86
2023-04-08T13:26:13.683Z,11.87
2023-04-08T13:27:13.688Z,11.85
2023-04-08T13:28:13.658Z,11.89
2023-04-08T13:29:13.640Z,11.80
2023-04-08T13:30:13.643Z,11.85
2023-04-08T13:31:13.614Z,11.90
2023-04-08T13:32:13.709Z,11.89
2023-04-08T13:33:13.585Z,11.90
2023-04-08T13:34:13.587Z,11.90
2023-04-08T13:35:13.574Z,11.96
2023-04-08T13:36:13.583Z,11.99
2023-04-08T13:37:13.565Z,12.04
2023-04-08T13:38:13.523Z,12.06
2023-04-08T13:39:13.532Z,12.01
2023-04-08T13:40:13.543Z,11.90
2023-04-08T13:41:13.478Z,11.89
2023-04-08T13:42:13.485Z,11.89
2023-04-08T13:43:13.464Z,11.94
2023-04-08T13:44:13.452Z,11.99
2023-04-08T13:45:13.424Z,12.02
2023-04-08T13:46:13.450Z,12.09
2023-04-08T13:47:13.406Z,12.15
2023-04-08T13:48:13.430Z,12.05
2023-04-08T13:49:13.373Z,11.96
2023-04-08T13:50:13.359Z,11.94
2023-04-08T13:51:13.344Z,11.93
2023-04-08T13:52:13.346Z,11.89
2023-04-08T13:53:13.318Z,11.83
2023-04-08T13:54:13.307Z,11.82
2023-04-08T13:55:13.292Z,11.77
2023-04-08T13:56:13.282Z,11.71
2023-04-08T13:57:13.276Z,11.67
2023-04-08T13:58:22.862Z,11.64
2023-04-08T13:59:14.235Z,11.71
2023-04-08T14:00:13.224Z,11.82
2023-04-08T14:01:13.224Z,11.78
2023-04-08T14:02:13.315Z,11.82
2023-04-08T14:03:13.229Z,11.85
2023-04-08T14:04:13.201Z,11.87
2023-04-08T14:05:13.161Z,11.74
2023-04-08T14:06:13.156Z,11.54
2023-04-08T14:07:13.140Z,11.49
2023-04-08T14:08:13.134Z,11.54
2023-04-08T14:09:13.107Z,11.62
2023-04-08T14:10:13.101Z,11.67
2023-04-08T14:11:13.105Z,11.70
2023-04-08T14:12:13.087Z,11.71
2023-04-08T14:13:13.053Z,11.80
2023-04-08T14:14:13.038Z,11.87
2023-04-08T14:15:13.036Z,11.96
2023-04-08T14:16:13.020Z,11.96
2023-04-08T14:17:13.048Z,11.93
2023-04-08T14:18:13.071Z,11.93
2023-04-08T14:19:12.970Z,11.85
2023-04-08T14:20:12.962Z,11.80
2023-04-08T14:21:12.952Z,11.82
2023-04-08T14:22:12.945Z,11.77
2023-04-08T14:23:12.917Z,11.75
2023-04-08T14:24:12.910Z,11.74
2023-04-08T14:25:12.894Z,11.70
2023-04-08T14:26:12.882Z,11.71
2023-04-08T14:27:12.876Z,11.74
2023-04-08T14:28:12.854Z,11.72
2023-04-08T14:29:12.837Z,11.64
2023-04-08T14:30:12.833Z,11.59
2023-04-08T14:31:12.889Z,11.64
2023-04-08T14:32:12.816Z,11.64
2023-04-08T14:33:12.787Z,11.68
2023-04-08T14:34:12.797Z,11.75
2023-04-08T14:35:12.759Z,11.82
2023-04-08T14:36:12.767Z,11.90
2023-04-08T14:37:12.766Z,11.96
2023-04-08T14:38:12.736Z,12.02
2023-04-08T14:39:12.710Z,12.05
2023-04-08T14:40:12.716Z,12.08
2023-04-08T14:41:12.678Z,12.13
2023-04-08T14:42:12.698Z,12.12
2023-04-08T14:43:12.671Z,12.12
2023-04-08T14:44:12.682Z,12.19
2023-04-08T14:45:12.633Z,12.24
2023-04-08T14:46:12.654Z,12.27
2023-04-08T14:47:12.613Z,12.31
2023-04-08T14:48:12.603Z,12.29
2023-04-08T14:49:12.574Z,12.21
2023-04-08T14:50:12.568Z,12.15
2023-04-08T14:51:12.546Z,12.02
2023-04-08T14:52:12.559Z,11.94
2023-04-08T14:53:12.525Z,11.86
2023-04-08T14:54:12.518Z,11.74
2023-04-08T14:55:12.507Z,11.67
2023-04-08T14:56:12.491Z,11.68
2023-04-08T14:57:12.478Z,11.72
2023-04-08T14:58:12.460Z,11.72
2023-04-08T14:59:12.446Z,11.77
2023-04-08T15:00:12.428Z,11.78
2023-04-08T15:01:12.444Z,11.85
2023-04-08T15:02:12.588Z,11.90
2023-04-08T15:03:12.475Z,11.99
2023-04-08T15:04:12.384Z,12.01
2023-04-08T15:05:12.360Z,12.02
2023-04-08T15:06:12.357Z,11.99
2023-04-08T15:07:12.353Z,12.02
2023-04-08T15:08:12.326Z,12.05
2023-04-08T15:09:12.309Z,12.08
2023-04-08T15:10:12.303Z,12.08
2023-04-08T15:11:12.294Z,12.12
2023-04-08T15:12:13.675Z,12.15
2023-04-08T15:13:12.257Z,12.12
2023-04-08T15:14:12.248Z,12.09
2023-04-08T15:15:12.230Z,12.08
2023-04-08T15:16:12.253Z,12.05
2023-04-08T15:17:12.213Z,12.05
2023-04-08T15:18:12.268Z,12.05
2023-04-08T15:19:12.179Z,12.06
2023-04-08T15:20:12.163Z,12.11
2023-04-08T15:21:12.163Z,12.19
2023-04-08T15:22:12.187Z,12.24
2023-04-08T15:23:12.133Z,12.33
2023-04-08T15:24:12.123Z,12.41
2023-04-08T15:25:12.099Z,12.44
2023-04-08T15:26:12.096Z,12.45
2023-04-08T15:27:12.092Z,12.45
2023-04-08T15:28:12.059Z,12.37
2023-04-08T15:29:12.060Z,12.29
2023-04-08T15:30:12.511Z,12.24
2023-04-08T15:31:12.109Z,12.19
2023-04-08T15:32:12.026Z,12.08
2023-04-08T15:33:12.034Z,12.06
2023-04-08T15:34:11.980Z,12.05
2023-04-08T15:35:11.979Z,12.05
2023-04-08T15:36:11.987Z,12.06
2023-04-08T15:37:11.957Z,12.08
2023-04-08T15:38:11.924Z,12.11
2023-04-08T15:39:11.911Z,12.13
2023-04-08T15:40:11.909Z,12.19
2023-04-08T15:41:11.897Z,12.21
2023-04-08T15:42:11.887Z,12.11
2023-04-08T15:43:11.877Z,12.02
2023-04-08T15:44:11.849Z,11.93
2023-04-08T15:45:11.843Z,11.87
2023-04-08T15:46:11.856Z,11.89
2023-04-08T15:47:11.914Z,11.87
2023-04-08T15:48:11.788Z,11.87
2023-04-08T15:49:11.789Z,11.82
2023-04-08T15:50:11.761Z,11.75
2023-04-08T15:51:11.750Z,11.71
2023-04-08T15:52:11.762Z,11.65
2023-04-08T15:53:11.731Z,11.65
2023-04-08T15:54:11.768Z,11.64
2023-04-08T15:55:11.750Z,11.64
2023-04-08T15:56:11.690Z,11.62
2023-04-08T15:57:11.693Z,11.67
2023-04-08T15:58:11.662Z,11.71
2023-04-08T15:59:11.655Z,11.74
2023-04-08T16:00:11.641Z,11.75
2023-04-08T16:01:11.620Z,11.71
2023-04-08T16:02:11.760Z,11.72
2023-04-08T16:03:12.014Z,11.68
2023-04-08T16:04:11.719Z,11.67
2023-04-08T16:05:11.572Z,11.64
2023-04-08T16:06:11.547Z,11.62
2023-04-08T16:07:11.565Z,11.64
2023-04-08T16:08:11.534Z,11.67
2023-04-08T16:09:11.547Z,11.71
2023-04-08T16:10:11.500Z,11.74
2023-04-08T16:11:11.490Z,11.78
2023-04-08T16:12:11.512Z,11.80
2023-04-08T16:13:11.483Z,11.77
2023-04-08T16:14:11.458Z,11.75
2023-04-08T16:15:11.445Z,11.71
2023-04-08T16:16:11.444Z,11.64
2023-04-08T16:17:11.415Z,11.59
2023-04-08T16:18:11.508Z,11.57
2023-04-08T16:19:11.380Z,11.57
2023-04-08T16:20:11.389Z,11.62
2023-04-08T16:21:11.364Z,11.68
2023-04-08T16:22:11.356Z,11.70
2023-04-08T16:23:11.347Z,11.68
2023-04-08T16:24:11.317Z,11.67
2023-04-08T16:25:11.320Z,11.68
2023-04-08T16:26:11.303Z,11.70
2023-04-08T16:27:11.296Z,11.71
2023-04-08T16:28:11.264Z,11.65
2023-04-08T16:29:11.251Z,11.57
2023-04-08T16:30:11.263Z,11.56
2023-04-08T16:31:11.270Z,11.50
2023-04-08T16:32:11.340Z,11.46
2023-04-08T16:33:11.256Z,11.46
2023-04-08T16:34:11.187Z,11.50
2023-04-08T16:35:11.173Z,11.54
2023-04-08T16:36:11.197Z,11.54
2023-04-08T16:37:11.771Z,11.59
2023-04-08T16:38:11.148Z,11.64
2023-04-08T16:39:11.120Z,11.65
2023-04-08T16:40:11.112Z,11.65
2023-04-08T16:41:11.111Z,11.65
2023-04-08T16:42:11.104Z,11.65
2023-04-08T16:43:12.206Z,11.64
2023-04-08T16:44:11.056Z,11.64
2023-04-08T16:45:11.044Z,11.64
2023-04-08T16:46:11.188Z,11.64
2023-04-08T16:47:11.025Z,11.62
2023-04-08T16:48:11.010Z,11.64
2023-04-08T16:49:13.381Z,11.62
2023-04-08T16:50:10.996Z,11.61
2023-04-08T16:51:10.965Z,11.59
2023-04-08T16:52:10.972Z,11.56
2023-04-08T16:53:10.938Z,11.56
2023-04-08T16:54:10.926Z,11.53
2023-04-08T16:55:11.993Z,11.52
2023-04-08T16:56:10.900Z,11.47
2023-04-08T16:57:10.899Z,11.38
2023-04-08T16:58:10.871Z,11.34
2023-04-08T16:59:10.863Z,11.32
2023-04-08T17:00:10.858Z,11.28
2023-04-08T17:01:10.861Z,11.27
2023-04-08T17:02:10.959Z,11.28
2023-04-08T17:03:10.921Z,11.24
2023-04-08T17:04:10.871Z,11.21
2023-04-08T17:05:10.791Z,11.20
2023-04-08T17:06:10.784Z,11.19
2023-04-08T17:07:11.395Z,11.17
2023-04-08T17:08:10.757Z,11.14
2023-04-08T17:09:10.729Z,11.11
2023-04-08T17:10:10.723Z,11.10
2023-04-08T17:11:10.702Z,11.06
2023-04-08T17:12:10.697Z,11.01
2023-04-08T17:13:12.038Z,10.99
2023-04-08T17:14:10.669Z,10.99
2023-04-08T17:15:10.645Z,10.96
2023-04-08T17:16:10.701Z,10.99
2023-04-08T17:17:10.630Z,10.99
2023-04-08T17:18:10.623Z,11.01
2023-04-08T17:19:12.214Z,10.98